createdAt,value
2023-05-22T00:01:28.901Z,3.42
2023-05-22T00:03:56.084Z,2.85
2023-05-22T00:06:23.600Z,3.50
2023-05-22T00:08:50.572Z,3.17
2023-05-22T00:11:18.954Z,3.22
2023-05-22T00:13:46.537Z,4.22
2023-05-22T00:16:13.466Z,3.50
2023-05-22T00:18:42.480Z,4.80
2023-05-22T00:21:09.576Z,3.53
2023-05-22T00:23:36.623Z,6.47
2023-05-22T00:26:03.677Z,7.35
2023-05-22T00:28:32.009Z,7.45
2023-05-22T00:33:25.905Z,7.38
2023-05-22T00:35:52.870Z,7.63
2023-05-22T00:38:38.215Z,7.80
2023-05-22T00:41:06.498Z,8.48
2023-05-22T00:46:01.832Z,6.82
2023-05-22T00:48:28.842Z,6.40
2023-05-22T00:50:57.854Z,5.38
2023-05-22T00:53:26.092Z,6.05
2023-05-22T00:55:54.228Z,6.32
2023-05-22T01:00:50.566Z,5.55
2023-05-22T01:03:18.024Z,6.47
2023-05-22T01:05:45.883Z,5.57
2023-05-22T01:08:12.909Z,6.32
2023-05-22T01:10:40.838Z,6.00
2023-05-22T01:13:14.926Z,6.80
2023-05-22T01:15:46.705Z,5.80
2023-05-22T01:18:22.552Z,6.03
2023-05-22T01:20:53.213Z,6.45
2023-05-22T01:23:58.486Z,6.30
2023-05-22T01:26:35.649Z,6.95
2023-05-22T01:29:19.138Z,6.40
2023-05-22T01:31:49.407Z,5.95
2023-05-22T01:34:17.704Z,4.68
2023-05-22T01:36:46.256Z,6.40
2023-05-22T01:39:13.313Z,7.15
2023-05-22T01:41:40.832Z,6.03
2023-05-22T01:44:07.817Z,6.43
2023-05-22T01:46:34.898Z,5.43
2023-05-22T01:49:03.307Z,4.80
2023-05-22T01:51:39.774Z,6.15
2023-05-22T01:54:11.133Z,5.20
2023-05-22T01:56:43.414Z,4.43
2023-05-22T01:59:15.217Z,5.68
2023-05-22T02:01:43.477Z,4.60
2023-05-22T02:04:13.854Z,5.05
2023-05-22T02:06:43.124Z,4.88
2023-05-22T02:09:10.750Z,5.85
2023-05-22T02:11:40.599Z,5.65
2023-05-22T02:14:09.048Z,4.85
2023-05-22T02:19:08.481Z,4.32
2023-05-22T02:21:37.103Z,5.15
2023-05-22T02:26:31.095Z,5.60
2023-05-22T02:28:59.343Z,6.55
2023-05-22T02:31:26.491Z,4.40
2023-05-22T02:33:53.551Z,5.20
2023-05-22T02:36:20.726Z,4.80
2023-05-22T02:38:49.450Z,5.30
2023-05-22T02:41:16.656Z,4.63
2023-05-22T02:43:44.254Z,4.13
2023-05-22T02:46:12.649Z,4.53
2023-05-22T02:48:39.795Z,5.95
2023-05-22T02:51:07.385Z,4.60
2023-05-22T02:53:35.478Z,4.18
2023-05-22T02:56:04.348Z,4.50
2023-05-22T02:58:31.263Z,4.30
2023-05-22T03:00:58.779Z,4.63
2023-05-22T03:05:58.583Z,4.25
2023-05-22T03:08:28.388Z,6.22
2023-05-22T03:10:56.083Z,4.75
2023-05-22T03:13:25.099Z,4.30
2023-05-22T03:15:52.454Z,5.03
2023-05-22T03:18:20.323Z,4.88
2023-05-22T03:20:47.351Z,5.00
2023-05-22T03:23:14.500Z,4.47
2023-05-22T03:25:41.478Z,5.25
2023-05-22T03:28:08.588Z,4.50
2023-05-22T03:30:41.006Z,4.43
2023-05-22T03:33:20.258Z,4.88
2023-05-22T03:35:47.434Z,5.05
2023-05-22T03:38:14.547Z,4.32
2023-05-22T03:40:41.790Z,4.82
2023-05-22T03:43:09.632Z,3.75
2023-05-22T03:45:36.696Z,5.10
2023-05-22T03:48:06.130Z,3.35
2023-05-22T03:50:33.380Z,5.03
2023-05-22T03:53:01.116Z,3.45
2023-05-22T03:55:28.056Z,4.25
2023-05-22T03:57:55.015Z,4.60
2023-05-22T04:00:22.125Z,4.57
2023-05-22T04:02:50.526Z,3.92
2023-05-22T04:07:45.847Z,4.82
2023-05-22T04:10:12.872Z,4.43
2023-05-22T04:12:39.866Z,4.72
2023-05-22T04:15:08.094Z,5.13
2023-05-22T04:17:41.574Z,4.18
2023-05-22T04:20:09.523Z,4.72
2023-05-22T04:22:38.639Z,6.35
2023-05-22T04:25:06.608Z,5.00
2023-05-22T04:27:34.403Z,4.93
2023-05-22T04:30:02.393Z,4.50
2023-05-22T04:32:29.921Z,5.40
2023-05-22T04:34:58.517Z,6.60
2023-05-22T04:37:26.578Z,4.80
2023-05-22T04:40:03.331Z,4.88
2023-05-22T04:42:31.506Z,6.00
2023-05-22T04:44:58.452Z,8.25
2023-05-22T04:47:25.481Z,6.22
2023-05-22T04:52:21.923Z,6.35
2023-05-22T04:54:51.683Z,7.55
2023-05-22T04:57:21.740Z,6.72
2023-05-22T04:59:49.758Z,8.15
2023-05-22T05:02:16.766Z,6.30
2023-05-22T05:04:43.901Z,7.20
2023-05-22T05:07:10.895Z,5.97
2023-05-22T05:09:37.875Z,6.45
2023-05-22T05:12:05.438Z,5.78
2023-05-22T05:14:33.741Z,4.95
2023-05-22T05:19:28.073Z,4.22
2023-05-22T05:21:55.173Z,5.15
2023-05-22T05:24:22.153Z,5.97
2023-05-22T05:26:50.407Z,6.63
2023-05-22T05:29:19.298Z,6.28
2023-05-22T05:31:57.228Z,6.40
2023-05-22T05:34:35.130Z,6.22
2023-05-22T05:37:11.431Z,4.78
2023-05-22T05:39:38.725Z,4.65
2023-05-22T05:42:08.145Z,4.28
2023-05-22T05:44:35.153Z,5.20
2023-05-22T05:47:06.385Z,5.53
2023-05-22T05:49:35.665Z,4.22
2023-05-22T05:52:04.401Z,4.65
2023-05-22T05:57:03.236Z,4.47
2023-05-22T05:59:32.079Z,3.55
2023-05-22T06:01:59.138Z,3.53
2023-05-22T06:04:31.492Z,3.42
2023-05-22T06:06:58.586Z,3.28
2023-05-22T06:09:30.763Z,3.63
2023-05-22T06:12:13.990Z,3.20
2023-05-22T06:14:44.318Z,2.67
2023-05-22T06:19:43.056Z,2.72
2023-05-22T06:22:10.599Z,2.42
2023-05-22T06:24:39.759Z,2.58
2023-05-22T06:27:12.656Z,3.03
2023-05-22T06:29:39.588Z,2.20
2023-05-22T06:32:08.001Z,3.33
2023-05-22T06:34:36.563Z,2.10
2023-05-22T06:37:05.592Z,2.22
2023-05-22T06:39:38.319Z,2.13
2023-05-22T06:42:12.886Z,2.58
2023-05-22T06:44:58.642Z,2.65
2023-05-22T06:47:34.074Z,1.98
2023-05-22T06:50:01.401Z,2.47
2023-05-22T06:52:31.885Z,2.60
2023-05-22T06:55:04.598Z,2.45
2023-05-22T06:57:36.040Z,2.88
2023-05-22T07:00:09.862Z,2.83
2023-05-22T07:02:57.605Z,2.88
2023-05-22T07:05:41.840Z,2.63
2023-05-22T07:08:10.467Z,2.42
2023-05-22T07:10:38.518Z,2.38
2023-05-22T07:13:05.908Z,3.50
2023-05-22T07:15:34.263Z,2.28
2023-05-22T07:18:03.605Z,2.60
2023-05-22T07:20:30.971Z,2.42
2023-05-22T07:23:09.032Z,2.55
2023-05-22T07:25:39.530Z,2.60
2023-05-22T07:28:08.896Z,2.70
2023-05-22T07:30:41.379Z,2.50
2023-05-22T07:33:08.676Z,2.53
2023-05-22T07:35:35.812Z,2.70
2023-05-22T07:38:03.145Z,1.85
2023-05-22T07:40:30.205Z,2.95
2023-05-22T07:42:58.655Z,3.33
2023-05-22T07:45:26.908Z,2.67
2023-05-22T07:47:56.466Z,2.42
2023-05-22T07:50:26.698Z,3.03
2023-05-22T07:52:53.817Z,2.33
2023-05-22T07:55:20.897Z,3.13
2023-05-22T08:00:25.655Z,3.28
2023-05-22T08:02:52.834Z,2.80
2023-05-22T08:05:20.222Z,2.70
2023-05-22T08:07:47.875Z,3.33
2023-05-22T08:10:16.055Z,3.75
2023-05-22T08:12:43.129Z,3.17
2023-05-22T08:15:11.176Z,3.15
2023-05-22T08:17:40.032Z,3.28
2023-05-22T08:20:09.555Z,3.20
2023-05-22T08:22:38.637Z,2.95
2023-05-22T08:25:06.494Z,4.13
2023-05-22T08:30:00.098Z,2.35
2023-05-22T08:32:28.154Z,2.42
2023-05-22T08:34:57.673Z,2.22
2023-05-22T08:37:24.652Z,3.13
2023-05-22T08:39:51.584Z,2.80
2023-05-22T08:42:18.533Z,2.85
2023-05-22T08:44:47.618Z,2.65
2023-05-22T08:47:15.267Z,2.45
2023-05-22T08:49:42.539Z,2.63
2023-05-22T08:52:13.861Z,2.88
2023-05-22T08:54:42.732Z,2.45
2023-05-22T08:57:09.885Z,2.10
2023-05-22T08:59:38.701Z,2.15
2023-05-22T09:02:06.972Z,1.90
2023-05-22T09:04:34.206Z,1.52
2023-05-22T09:07:05.809Z,1.85
2023-05-22T09:09:36.794Z,2.08
2023-05-22T09:12:06.615Z,1.67
2023-05-22T09:14:39.120Z,2.17
2023-05-22T09:17:06.653Z,1.80
2023-05-22T09:22:03.296Z,2.42
2023-05-22T09:24:30.477Z,1.77
2023-05-22T09:27:03.648Z,2.10
2023-05-22T09:29:30.817Z,1.65
2023-05-22T09:31:59.452Z,2.40
2023-05-22T09:34:28.338Z,2.17
2023-05-22T09:37:02.264Z,2.20
2023-05-22T09:39:38.677Z,2.58
2023-05-22T09:42:08.146Z,2.13
2023-05-22T09:44:35.788Z,2.25
2023-05-22T09:49:29.842Z,2.13
2023-05-22T09:51:57.643Z,2.30
2023-05-22T09:54:25.908Z,2.05
2023-05-22T09:56:57.155Z,2.03
2023-05-22T09:59:29.444Z,1.90
2023-05-22T10:01:57.319Z,2.35
2023-05-22T10:04:25.132Z,2.30
2023-05-22T10:06:54.199Z,1.95
2023-05-22T10:09:24.272Z,3.08
2023-05-22T10:11:54.019Z,2.33
2023-05-22T10:14:21.247Z,2.20
2023-05-22T10:16:50.046Z,2.80
2023-05-22T10:19:17.781Z,2.22
2023-05-22T10:22:04.222Z,1.98
2023-05-22T10:24:31.784Z,2.30
2023-05-22T10:26:59.579Z,2.10
2023-05-22T10:32:02.186Z,1.75
2023-05-22T10:34:41.760Z,3.00
2023-05-22T10:37:22.325Z,2.92
2023-05-22T10:39:56.247Z,2.35
2023-05-22T10:42:23.264Z,4.57
2023-05-22T10:44:50.430Z,2.80
2023-05-22T10:47:20.070Z,3.53
2023-05-22T10:49:47.124Z,3.45
2023-05-22T10:52:15.034Z,3.13
2023-05-22T10:57:10.730Z,3.47
2023-05-22T10:59:37.764Z,3.13
2023-05-22T11:02:06.124Z,3.50
2023-05-22T11:04:35.019Z,3.60
2023-05-22T11:07:06.822Z,2.83
2023-05-22T11:09:35.247Z,3.33
2023-05-22T11:12:20.659Z,3.15
2023-05-22T11:14:52.215Z,2.58
2023-05-22T11:17:22.542Z,3.17
2023-05-22T11:19:59.435Z,3.92
2023-05-22T11:22:34.212Z,3.65
2023-05-22T11:25:05.092Z,4.18
2023-05-22T11:27:32.364Z,4.75
2023-05-22T11:30:00.164Z,3.92
2023-05-22T11:32:27.685Z,3.50
2023-05-22T11:34:57.134Z,4.55
2023-05-22T11:37:24.593Z,3.88
2023-05-22T11:39:55.287Z,2.40
2023-05-22T11:42:22.330Z,2.92
2023-05-22T11:44:49.398Z,2.63
2023-05-22T11:47:16.503Z,3.90
2023-05-22T11:49:44.079Z,3.97
2023-05-22T11:52:12.402Z,3.42
2023-05-22T11:54:39.469Z,3.22
2023-05-22T11:57:08.003Z,2.45
2023-05-22T11:59:35.127Z,2.38
2023-05-22T12:02:02.185Z,1.90
2023-05-22T12:04:29.170Z,2.83
2023-05-22T12:06:56.712Z,2.25
2023-05-22T12:09:27.653Z,2.38
2023-05-22T12:11:55.710Z,2.25
2023-05-22T12:14:26.457Z,1.90
2023-05-22T12:16:54.266Z,2.20
2023-05-22T12:19:22.004Z,2.80
2023-05-22T12:21:49.790Z,3.03
2023-05-22T12:24:16.766Z,3.15
2023-05-22T12:26:51.424Z,3.35
2023-05-22T12:31:46.586Z,4.07
2023-05-22T12:39:09.484Z,2.45
2023-05-22T12:41:36.495Z,4.30
2023-05-22T12:44:05.326Z,3.13
2023-05-22T12:46:32.502Z,3.10
2023-05-22T12:48:59.623Z,2.70
2023-05-22T12:51:27.207Z,3.25
2023-05-22T12:53:54.110Z,2.70
2023-05-22T12:56:21.887Z,3.00
2023-05-22T12:58:48.943Z,3.03
2023-05-22T13:01:17.397Z,3.20
2023-05-22T13:03:44.435Z,3.17
2023-05-22T13:06:12.379Z,3.10
2023-05-22T13:11:06.400Z,3.22
2023-05-22T13:13:33.336Z,3.40
2023-05-22T13:16:00.298Z,3.92
2023-05-22T13:18:28.684Z,2.85
2023-05-22T13:20:57.810Z,2.65
2023-05-22T13:23:25.590Z,2.80
2023-05-22T13:25:52.505Z,2.40
2023-05-22T13:28:19.553Z,3.90
2023-05-22T13:30:46.611Z,2.85
2023-05-22T13:33:13.626Z,3.00
2023-05-22T13:35:42.100Z,2.38
2023-05-22T13:38:09.225Z,2.53
2023-05-22T13:40:36.198Z,2.35
2023-05-22T13:43:03.319Z,2.70
2023-05-22T13:45:31.250Z,2.60
2023-05-22T13:47:58.242Z,1.60
2023-05-22T13:50:25.163Z,2.20
2023-05-22T13:52:53.722Z,1.95
2023-05-22T13:55:21.013Z,2.70
2023-05-22T13:57:47.961Z,2.42
2023-05-22T14:00:15.701Z,1.90
2023-05-22T14:02:42.781Z,2.38
2023-05-22T14:05:10.059Z,2.05
2023-05-22T14:07:37.158Z,2.20
2023-05-22T14:10:06.731Z,2.47
2023-05-22T14:12:33.808Z,2.28
2023-05-22T14:15:00.872Z,2.53
2023-05-22T14:17:28.735Z,2.38
2023-05-22T14:19:55.762Z,2.28
2023-05-22T14:22:22.691Z,2.20
2023-05-22T14:24:49.882Z,2.13
2023-05-22T14:27:18.290Z,2.17
2023-05-22T14:29:45.338Z,2.20
2023-05-22T14:32:12.295Z,2.45
2023-05-22T14:34:39.546Z,2.20
2023-05-22T14:37:06.584Z,2.42
2023-05-22T14:39:33.634Z,1.77
2023-05-22T14:42:00.960Z,2.38
2023-05-22T14:44:29.293Z,2.47
2023-05-22T14:46:56.433Z,2.38
2023-05-22T14:49:23.368Z,2.53
2023-05-22T14:51:50.408Z,2.40
2023-05-22T14:54:20.703Z,2.17
2023-05-22T14:56:47.700Z,2.20
2023-05-22T14:59:14.686Z,2.28
2023-05-22T15:01:43.094Z,2.78
2023-05-22T15:04:10.093Z,3.35
2023-05-22T15:06:37.336Z,2.65
2023-05-22T15:09:04.281Z,2.30
2023-05-22T15:11:31.314Z,2.92
2023-05-22T15:13:58.210Z,2.72
2023-05-22T15:16:26.223Z,3.13
2023-05-22T15:18:55.263Z,3.13
2023-05-22T15:21:22.907Z,2.72
2023-05-22T15:23:49.882Z,3.65
2023-05-22T15:26:16.894Z,3.70
2023-05-22T15:28:43.865Z,3.72
2023-05-22T15:31:10.822Z,3.00
2023-05-22T15:33:39.176Z,2.65
2023-05-22T15:36:08.108Z,3.33
2023-05-22T15:38:35.093Z,3.63
2023-05-22T15:41:02.057Z,3.30
2023-05-22T15:43:29.158Z,4.03
2023-05-22T15:45:56.249Z,3.42
2023-05-22T15:48:23.209Z,3.95
2023-05-22T15:50:50.160Z,3.53
2023-05-22T15:53:18.557Z,3.40
2023-05-22T15:55:45.612Z,3.58
2023-05-22T15:58:12.667Z,3.08
2023-05-22T16:00:41.368Z,4.05
2023-05-22T16:03:09.874Z,3.20
2023-05-22T16:05:38.731Z,3.60
2023-05-22T16:08:15.158Z,3.70
2023-05-22T16:10:45.428Z,4.95
2023-05-22T16:13:13.024Z,4.07
2023-05-22T16:15:40.959Z,4.63
2023-05-22T16:18:08.945Z,4.25
2023-05-22T16:20:36.221Z,3.63
2023-05-22T16:23:03.414Z,3.60
2023-05-22T16:25:30.403Z,3.50
2023-05-22T16:27:59.092Z,4.60
2023-05-22T16:30:26.091Z,2.80
2023-05-22T16:32:53.198Z,2.10
2023-05-22T16:35:22.104Z,3.00
2023-05-22T16:37:49.222Z,2.38
2023-05-22T16:40:16.246Z,2.97
2023-05-22T16:42:43.378Z,2.90
2023-05-22T16:45:12.029Z,2.22
2023-05-22T16:47:39.125Z,2.72
2023-05-22T16:50:07.805Z,3.90
2023-05-22T16:52:34.888Z,2.90
2023-05-22T16:55:02.330Z,3.38
2023-05-22T16:57:29.301Z,2.60
2023-05-22T16:59:57.840Z,2.47
2023-05-22T17:02:26.893Z,2.08
2023-05-22T17:04:54.548Z,3.05
2023-05-22T17:07:21.600Z,2.65
2023-05-22T17:09:48.634Z,2.78
2023-05-22T17:12:15.537Z,2.40
2023-05-22T17:14:42.491Z,3.08
2023-05-22T17:17:09.511Z,4.82
2023-05-22T17:19:38.077Z,3.08
2023-05-22T17:22:05.364Z,3.67
2023-05-22T17:24:32.467Z,2.95
2023-05-22T17:27:00.137Z,3.45
2023-05-22T17:29:28.188Z,3.47
2023-05-22T17:31:55.433Z,3.38
2023-05-22T17:34:22.481Z,2.88
2023-05-22T17:36:50.803Z,2.40
2023-05-22T17:39:17.878Z,2.85
2023-05-22T17:41:44.814Z,4.88
2023-05-22T17:44:11.840Z,2.50
2023-05-22T17:46:40.116Z,2.67
2023-05-22T17:49:07.116Z,3.08
2023-05-22T17:51:34.121Z,3.45
2023-05-22T17:54:02.460Z,4.90
2023-05-22T17:56:29.470Z,3.75
2023-05-22T17:58:56.596Z,2.83
2023-05-22T18:01:24.606Z,3.05
2023-05-22T18:03:51.825Z,2.70
2023-05-22T18:06:18.972Z,3.05
2023-05-22T18:08:47.809Z,3.03
2023-05-22T18:11:16.327Z,4.28
2023-05-22T18:13:43.314Z,3.85
2023-05-22T18:16:10.489Z,2.67
2023-05-22T18:18:37.407Z,3.47
2023-05-22T18:21:04.930Z,2.10
2023-05-22T18:23:32.083Z,3.50
2023-05-22T18:25:59.084Z,4.80
2023-05-22T18:28:27.537Z,3.58
2023-05-22T18:30:54.960Z,3.58
2023-05-22T18:33:24.730Z,3.38
2023-05-22T18:35:51.778Z,3.60
2023-05-22T18:38:18.813Z,2.65
2023-05-22T18:40:47.305Z,2.65
2023-05-22T18:43:14.307Z,3.00
2023-05-22T18:45:42.806Z,2.38
2023-05-22T18:48:09.836Z,2.35
2023-05-22T18:50:37.117Z,2.15
2023-05-22T18:53:04.078Z,2.75
2023-05-22T18:55:31.124Z,3.20
2023-05-22T18:57:58.144Z,2.95
2023-05-22T19:00:25.166Z,2.30
2023-05-22T19:02:53.541Z,2.60
2023-05-22T19:05:20.705Z,3.67
2023-05-22T19:07:47.672Z,2.72
2023-05-22T19:10:14.763Z,2.70
2023-05-22T19:12:41.700Z,1.90
2023-05-22T19:15:10.070Z,2.17
2023-05-22T19:17:37.033Z,2.47
2023-05-22T19:20:07.654Z,1.55
2023-05-22T19:22:34.809Z,2.15
2023-05-22T19:25:02.851Z,1.50
2023-05-22T19:27:30.053Z,2.53
2023-05-22T19:29:57.106Z,1.55
2023-05-22T19:32:24.014Z,2.10
2023-05-22T19:34:51.156Z,2.10
2023-05-22T19:37:19.521Z,1.45
2023-05-22T19:39:46.521Z,1.58
2023-05-22T19:42:13.536Z,1.40
2023-05-22T19:44:40.505Z,2.35
2023-05-22T19:47:07.941Z,1.30
2023-05-22T19:49:37.086Z,2.50
2023-05-22T19:52:04.877Z,2.28
2023-05-22T19:54:34.676Z,1.95
2023-05-22T19:57:03.079Z,1.80
2023-05-22T20:01:56.732Z,1.73
2023-05-22T20:04:23.656Z,1.60
2023-05-22T20:06:50.917Z,1.10
2023-05-22T20:09:18.095Z,1.15
2023-05-22T20:11:46.594Z,1.77
2023-05-22T20:14:13.709Z,1.30
2023-05-22T20:16:40.826Z,1.85
2023-05-22T20:19:09.075Z,1.25
2023-05-22T20:24:05.946Z,1.95
2023-05-22T20:26:32.998Z,2.35
2023-05-22T20:29:01.479Z,2.30
2023-05-22T20:31:28.425Z,2.08
2023-05-22T20:33:55.500Z,1.38
2023-05-22T20:36:22.509Z,0.80
2023-05-22T20:38:50.140Z,1.30
2023-05-22T20:41:19.359Z,1.27
2023-05-22T20:43:46.570Z,1.92
2023-05-22T20:46:14.899Z,1.58
2023-05-22T20:48:46.904Z,2.35
2023-05-22T20:51:15.869Z,1.67
2023-05-22T20:53:42.821Z,3.22
2023-05-22T20:56:09.934Z,2.58
2023-05-22T20:58:38.622Z,1.75
2023-05-22T21:01:06.368Z,1.85
2023-05-22T21:03:34.790Z,1.08
2023-05-22T21:06:02.051Z,1.80
2023-05-22T21:08:29.164Z,1.45
2023-05-22T21:10:56.108Z,1.85
2023-05-22T21:13:23.029Z,2.17
2023-05-22T21:15:50.013Z,1.38
2023-05-22T21:18:17.171Z,1.60
2023-05-22T21:20:46.511Z,2.10
2023-05-22T21:23:13.646Z,2.42
2023-05-22T21:25:40.612Z,2.28
2023-05-22T21:28:07.920Z,1.92
2023-05-22T21:30:34.950Z,1.48
2023-05-22T21:33:01.904Z,2.22
2023-05-22T21:35:28.910Z,2.40
2023-05-22T21:37:57.298Z,1.63
2023-05-22T21:42:51.717Z,1.60
2023-05-22T21:45:18.709Z,2.00
2023-05-22T21:47:45.722Z,2.05
2023-05-22T21:50:12.883Z,2.13
2023-05-22T21:52:39.846Z,2.00
2023-05-22T21:55:08.804Z,2.55
2023-05-22T22:00:03.357Z,3.20
2023-05-22T22:02:32.048Z,2.85
2023-05-22T22:04:59.023Z,4.05
2023-05-22T22:07:26.147Z,2.40
2023-05-22T22:09:53.262Z,3.20
2023-05-22T22:12:21.698Z,3.40
2023-05-22T22:14:48.758Z,3.85
2023-05-22T22:17:16.894Z,2.50
2023-05-22T22:19:44.596Z,3.08
2023-05-22T22:22:12.605Z,2.50
2023-05-22T22:24:39.841Z,3.85
2023-05-22T22:27:06.811Z,3.67
2023-05-22T22:29:35.175Z,3.45
2023-05-22T22:32:02.324Z,3.25
2023-05-22T22:34:29.252Z,3.80
2023-05-22T22:36:57.487Z,3.67
2023-05-22T22:39:26.542Z,3.85
2023-05-22T22:41:53.507Z,3.33
2023-05-22T22:44:20.540Z,3.97
2023-05-22T22:46:49.729Z,3.42
2023-05-22T22:49:17.637Z,3.78
2023-05-22T22:51:44.835Z,3.70
2023-05-22T22:54:14.510Z,3.47
2023-05-22T22:56:41.503Z,3.15
2023-05-22T22:59:08.620Z,4.40
2023-05-22T23:01:35.782Z,3.65
2023-05-22T23:04:04.235Z,4.43
2023-05-22T23:06:33.059Z,3.45
2023-05-22T23:09:00.271Z,2.97
2023-05-22T23:11:28.171Z,2.90
2023-05-22T23:13:55.484Z,3.85
2023-05-22T23:16:23.012Z,2.92
2023-05-22T23:18:50.107Z,2.30
2023-05-22T23:21:18.506Z,2.53
2023-05-22T23:23:45.475Z,2.50
2023-05-22T23:26:12.411Z,2.10
2023-05-22T23:28:39.438Z,2.53
2023-05-22T23:31:07.365Z,2.78
2023-05-22T23:33:34.310Z,3.05
2023-05-22T23:36:01.276Z,2.40
2023-05-22T23:38:29.640Z,2.17
2023-05-22T23:40:56.649Z,2.92
2023-05-22T23:43:23.826Z,2.80
2023-05-22T23:45:50.860Z,2.92
2023-05-22T23:48:17.837Z,3.15
2023-05-22T23:50:45.805Z,2.20
2023-05-22T23:53:12.798Z,3.85
2023-05-22T23:55:41.393Z,2.42
2023-05-22T23:58:08.505Z,2.33
